Time;durP1;ratioP1;P1;durP2;ratioP2;P2;SDS_P1;SDS_P2;PMS_P1;PMS_P2;Temp;Humidity;BMP_temperature;BMP_pressure;BME280_temperature;BME280_humidity;BME280_pressure;Samples;Min_cycle;Max_cycle;Signal;HPM_P1;HPM_P2
2021/12/14 00:00:26;;;;;;;44.20;20.03;;;;;;;;;;5079143;28;20448;-64
2021/12/14 00:06:25;;;;;;;34.97;17.17;;;;;;;;;;5099008;28;20518;-65
2021/12/14 00:08:56;;;;;;;39.97;17.83;;;;;;;;;;5099083;28;20472;-65
2021/12/14 00:11:35;;;;;;;39.07;18.60;;;;;;;;;;5098987;28;20449;-64
2021/12/14 00:14:25;;;;;;;31.67;17.00;;;;;;;;;;5098299;28;20946;-64
2021/12/14 00:16:56;;;;;;;35.10;17.47;;;;;;;;;;5098979;28;20436;-65
2021/12/14 00:19:25;;;;;;;31.90;17.00;;;;;;;;;;5098552;28;20495;-64
2021/12/14 00:22:02;;;;;;;37.80;17.63;;;;;;;;;;5098985;28;20444;-64
2021/12/14 00:24:29;;;;;;;39.77;19.07;;;;;;;;;;5098842;28;20484;-64
2021/12/14 00:26:58;;;;;;;38.80;17.23;;;;;;;;;;5098350;28;20486;-64
2021/12/14 00:29:27;;;;;;;41.93;18.87;;;;;;;;;;5085971;28;20461;-64
2021/12/14 00:31:58;;;;;;;39.50;19.70;;;;;;;;;;5077821;28;20445;-65
2021/12/14 00:34:36;;;;;;;32.90;17.17;;;;;;;;;;5078335;28;20444;-64
2021/12/14 00:37:06;;;;;;;31.37;16.17;;;;;;;;;;5077816;28;20474;-65
2021/12/14 00:39:34;;;;;;;37.23;17.77;;;;;;;;;;5088341;28;20452;-65
2021/12/14 00:42:03;;;;;;;36.30;17.30;;;;;;;;;;5077857;28;20928;-65
2021/12/14 00:44:32;;;;;;;34.33;17.20;;;;;;;;;;5077940;28;20532;-65
2021/12/14 00:47:01;;;;;;;33.47;17.70;;;;;;;;;;5077813;28;20840;-65
2021/12/14 00:49:29;;;;;;;39.63;19.40;;;;;;;;;;5078673;28;20912;-65
2021/12/14 00:51:57;;;;;;;37.53;19.27;;;;;;;;;;5077986;28;20946;-64
2021/12/14 00:54:27;;;;;;;35.83;17.67;;;;;;;;;;5078121;28;20524;-65
2021/12/14 00:56:55;;;;;;;36.77;17.90;;;;;;;;;;5077797;28;20444;-64
2021/12/14 00:59:23;;;;;;;43.90;19.73;;;;;;;;;;5077123;28;20470;-64
2021/12/14 01:01:53;;;;;;;33.43;17.63;;;;;;;;;;5077893;28;20444;-64
2021/12/14 01:04:23;;;;;;;37.03;18.33;;;;;;;;;;5077589;28;20476;-64
2021/12/14 01:06:51;;;;;;;36.73;18.43;;;;;;;;;;5077605;28;20480;-64
2021/12/14 01:09:21;;;;;;;37.67;18.00;;;;;;;;;;5077718;28;20461;-64
2021/12/14 01:11:51;;;;;;;40.50;19.47;;;;;;;;;;5078134;28;20470;-64
2021/12/14 01:14:24;;;;;;;40.47;18.13;;;;;;;;;;5097743;28;20439;-64
2021/12/14 01:17:06;;;;;;;39.43;18.97;;;;;;;;;;5097626;28;20829;-65
2021/12/14 01:19:36;;;;;;;37.57;18.53;;;;;;;;;;5097468;28;20467;-65
2021/12/14 01:22:33;;;;;;;40.13;19.00;;;;;;;;;;5097687;28;20809;-64
2021/12/14 01:25:04;;;;;;;34.33;18.23;;;;;;;;;;5097697;28;20532;-65
2021/12/14 01:27:36;;;;;;;33.40;17.63;;;;;;;;;;5097688;28;20487;-65
2021/12/14 01:30:12;;;;;;;37.50;17.13;;;;;;;;;;5080060;28;20544;-64
2021/12/14 01:32:43;;;;;;;39.27;18.10;;;;;;;;;;5077815;28;20455;-64
2021/12/14 01:35:13;;;;;;;32.47;16.33;;;;;;;;;;5077547;28;20479;-64
2021/12/14 01:37:47;;;;;;;42.77;19.03;;;;;;;;;;5077284;28;20473;-64
2021/12/14 01:40:45;;;;;;;35.83;18.10;;;;;;;;;;5088479;28;20927;-64
2021/12/14 01:43:09;;;;;;;35.33;16.60;;;;;;;;;;5077255;28;20441;-65
2021/12/14 01:45:37;;;;;;;39.43;17.40;;;;;;;;;;5081539;28;20448;-64
2021/12/14 01:48:05;;;;;;;33.43;16.33;;;;;;;;;;5082751;28;20502;-65
2021/12/14 01:50:35;;;;;;;36.77;17.47;;;;;;;;;;5081233;28;20447;-65
2021/12/14 01:53:04;;;;;;;34.30;16.87;;;;;;;;;;5081136;28;20470;-65
2021/12/14 01:55:34;;;;;;;34.90;16.87;;;;;;;;;;5081222;28;20924;-64
2021/12/14 01:58:04;;;;;;;32.57;16.83;;;;;;;;;;5080559;28;20460;-64
2021/12/14 02:00:35;;;;;;;36.10;17.80;;;;;;;;;;5081198;28;20440;-65
2021/12/14 02:03:05;;;;;;;34.97;16.13;;;;;;;;;;5080765;28;20452;-64
2021/12/14 02:05:42;;;;;;;30.33;17.07;;;;;;;;;;5081198;28;20535;-64
2021/12/14 02:08:14;;;;;;;36.67;16.97;;;;;;;;;;5081097;28;20490;-64
2021/12/14 02:10:42;;;;;;;33.67;17.37;;;;;;;;;;5081311;28;20448;-64
2021/12/14 02:13:10;;;;;;;36.13;16.67;;;;;;;;;;5092697;28;20439;-64
2021/12/14 02:15:41;;;;;;;36.43;18.53;;;;;;;;;;5101216;28;20467;-65
2021/12/14 02:18:11;;;;;;;35.73;16.70;;;;;;;;;;5101116;28;20466;-65
2021/12/14 02:20:47;;;;;;;34.20;16.80;;;;;;;;;;5101017;28;20938;-64
2021/12/14 02:23:15;;;;;;;35.80;17.57;;;;;;;;;;5101175;28;20510;-65
2021/12/14 02:25:43;;;;;;;37.60;17.07;;;;;;;;;;5101025;28;20450;-65
2021/12/14 02:28:15;;;;;;;34.67;16.60;;;;;;;;;;5098570;28;20489;-65
2021/12/14 02:30:43;;;;;;;38.30;16.70;;;;;;;;;;5080469;28;20440;-65
2021/12/14 02:33:13;;;;;;;37.00;17.17;;;;;;;;;;5080784;28;20456;-65
2021/12/14 02:35:41;;;;;;;41.03;15.70;;;;;;;;;;5080620;28;20532;-65
2021/12/14 02:38:12;;;;;;;34.83;17.03;;;;;;;;;;5080167;28;20484;-65
2021/12/14 02:40:56;;;;;;;32.07;16.23;;;;;;;;;;5088030;28;20440;-65
2021/12/14 02:43:27;;;;;;;29.90;15.03;;;;;;;;;;5085780;28;20531;-65
2021/12/14 02:46:02;;;;;;;34.23;16.30;;;;;;;;;;5099419;28;20458;-65
2021/12/14 02:48:30;;;;;;;31.97;15.17;;;;;;;;;;5090528;28;20476;-65
2021/12/14 02:50:58;;;;;;;33.70;15.13;;;;;;;;;;5079169;28;20442;-64
2021/12/14 02:53:27;;;;;;;32.27;15.83;;;;;;;;;;5078967;28;20444;-65
2021/12/14 02:55:55;;;;;;;34.30;16.33;;;;;;;;;;5078499;28;20804;-65
2021/12/14 02:58:23;;;;;;;32.43;15.37;;;;;;;;;;5078379;28;20460;-65
2021/12/14 03:00:52;;;;;;;29.40;16.00;;;;;;;;;;5079155;28;20447;-65
2021/12/14 03:03:21;;;;;;;35.27;16.13;;;;;;;;;;5079067;28;20520;-65
2021/12/14 03:05:50;;;;;;;34.47;15.53;;;;;;;;;;5078668;28;20783;-65
2021/12/14 03:08:19;;;;;;;29.93;14.70;;;;;;;;;;5078784;28;20484;-64
2021/12/14 03:10:59;;;;;;;32.33;14.90;;;;;;;;;;5078907;28;20441;-65
2021/12/14 03:13:30;;;;;;;28.53;13.97;;;;;;;;;;5092610;28;21096;-65
2021/12/14 03:15:59;;;;;;;29.57;14.27;;;;;;;;;;5099125;28;20450;-65
2021/12/14 03:18:28;;;;;;;28.07;14.20;;;;;;;;;;5098751;28;20470;-65
2021/12/14 03:20:58;;;;;;;26.77;14.67;;;;;;;;;;5091205;28;20442;-65
2021/12/14 03:23:29;;;;;;;26.67;13.80;;;;;;;;;;5089181;28;20441;-65
2021/12/14 03:26:00;;;;;;;30.67;14.83;;;;;;;;;;5092184;28;20442;-65
2021/12/14 03:28:29;;;;;;;30.20;14.73;;;;;;;;;;5088661;28;20490;-65
2021/12/14 03:31:02;;;;;;;23.93;13.67;;;;;;;;;;5087850;28;20455;-65
2021/12/14 03:33:33;;;;;;;28.90;14.30;;;;;;;;;;5087571;28;20502;-65
2021/12/14 03:36:02;;;;;;;30.17;15.50;;;;;;;;;;5088063;28;20439;-65
2021/12/14 03:38:32;;;;;;;30.47;14.40;;;;;;;;;;5046358;28;1290316;-65
2021/12/14 03:41:04;;;;;;;30.80;15.33;;;;;;;;;;5088960;28;20205;-65
2021/12/14 03:43:31;;;;;;;27.90;13.63;;;;;;;;;;5089778;28;20812;-65
2021/12/14 03:46:00;;;;;;;25.67;13.73;;;;;;;;;;5091912;28;20454;-65
2021/12/14 03:48:29;;;;;;;28.97;14.93;;;;;;;;;;5091665;28;20480;-65
2021/12/14 03:50:57;;;;;;;30.00;14.53;;;;;;;;;;5089629;28;20433;-65
2021/12/14 03:53:25;;;;;;;27.27;14.40;;;;;;;;;;5090021;28;20439;-65
2021/12/14 03:55:54;;;;;;;27.50;15.77;;;;;;;;;;5087208;28;20932;-65
2021/12/14 03:58:25;;;;;;;27.93;14.87;;;;;;;;;;5090632;28;20457;-65
2021/12/14 04:00:55;;;;;;;29.20;15.50;;;;;;;;;;5085625;28;20442;-65
2021/12/14 04:03:24;;;;;;;32.03;15.47;;;;;;;;;;5083267;28;20433;-65
2021/12/14 04:05:53;;;;;;;28.87;15.33;;;;;;;;;;5084451;28;20448;-65
2021/12/14 04:08:22;;;;;;;29.37;15.03;;;;;;;;;;5087929;28;20475;-65
2021/12/14 04:10:51;;;;;;;32.63;16.23;;;;;;;;;;5089296;28;20919;-65
2021/12/14 04:13:21;;;;;;;31.47;16.07;;;;;;;;;;5089548;28;20466;-65
2021/12/14 04:15:51;;;;;;;28.23;16.43;;;;;;;;;;5097273;28;20449;-65
2021/12/14 04:18:19;;;;;;;30.77;16.00;;;;;;;;;;5098787;28;20459;-65
2021/12/14 04:20:48;;;;;;;35.83;17.43;;;;;;;;;;5098988;28;20965;-65
2021/12/14 04:23:17;;;;;;;34.77;15.77;;;;;;;;;;5098918;28;20443;-64
2021/12/14 04:25:47;;;;;;;34.57;16.63;;;;;;;;;;5098561;28;20446;-65
2021/12/14 04:28:16;;;;;;;36.13;17.13;;;;;;;;;;5091361;28;20483;-65
2021/12/14 04:30:45;;;;;;;38.63;15.60;;;;;;;;;;5078247;28;20444;-65
2021/12/14 04:33:19;;;;;;;35.40;15.67;;;;;;;;;;5078441;28;20452;-65
2021/12/14 04:35:48;;;;;;;33.83;15.87;;;;;;;;;;5078190;28;20464;-65
2021/12/14 04:38:21;;;;;;;31.57;16.57;;;;;;;;;;5079561;28;20979;-64
2021/12/14 04:51:59;;;;;;;29.00;14.53;;;;;;;;;;5076121;28;20451;-65
2021/12/14 04:54:29;;;;;;;33.13;16.27;;;;;;;;;;5076182;28;20444;-65
2021/12/14 04:56:58;;;;;;;35.37;17.47;;;;;;;;;;5075953;28;20449;-65
2021/12/14 04:59:27;;;;;;;29.20;16.03;;;;;;;;;;5075490;28;20475;-65
2021/12/14 05:01:57;;;;;;;32.93;17.43;;;;;;;;;;5076616;28;20451;-65
2021/12/14 05:04:28;;;;;;;35.50;16.57;;;;;;;;;;5077929;28;20472;-65
2021/12/14 05:07:04;;;;;;;31.07;16.47;;;;;;;;;;5077521;28;20927;-65
2021/12/14 05:09:33;;;;;;;30.90;16.50;;;;;;;;;;5077881;28;20484;-65
2021/12/14 05:12:06;;;;;;;30.80;16.50;;;;;;;;;;5079745;28;20809;-65
2021/12/14 05:14:35;;;;;;;36.13;17.53;;;;;;;;;;5097713;28;20447;-64
2021/12/14 05:17:05;;;;;;;34.27;16.83;;;;;;;;;;5097682;28;20798;-65
2021/12/14 05:19:35;;;;;;;34.93;16.30;;;;;;;;;;5097536;28;20464;-65
2021/12/14 05:22:05;;;;;;;32.10;16.10;;;;;;;;;;5097780;28;20820;-65
2021/12/14 05:24:33;;;;;;;32.23;15.17;;;;;;;;;;5098207;28;20450;-65
2021/12/14 05:27:02;;;;;;;27.60;15.30;;;;;;;;;;5097849;28;20520;-64
2021/12/14 05:29:30;;;;;;;29.07;14.97;;;;;;;;;;5084840;28;20486;-65
2021/12/14 05:31:59;;;;;;;30.70;15.40;;;;;;;;;;5077467;28;20444;-65
2021/12/14 05:34:28;;;;;;;32.77;16.50;;;;;;;;;;5077385;28;20924;-64
2021/12/14 05:36:58;;;;;;;28.50;14.53;;;;;;;;;;5084395;28;20840;-65
2021/12/14 05:39:45;;;;;;;28.90;16.03;;;;;;;;;;5096809;28;20458;-65
2021/12/14 05:45:02;;;;;;;31.27;15.03;;;;;;;;;;5077053;28;20785;-65
2021/12/14 05:47:30;;;;;;;29.43;15.03;;;;;;;;;;5078276;28;20445;-65
2021/12/14 05:49:58;;;;;;;31.20;14.73;;;;;;;;;;5077324;28;20538;-64
2021/12/14 05:52:28;;;;;;;31.83;15.93;;;;;;;;;;5077360;28;20439;-64
2021/12/14 05:54:58;;;;;;;38.53;17.27;;;;;;;;;;5077178;28;20471;-64
2021/12/14 05:57:27;;;;;;;34.60;16.67;;;;;;;;;;5077085;28;20440;-63
2021/12/14 05:59:55;;;;;;;37.60;17.20;;;;;;;;;;5077231;28;20460;-64
2021/12/14 06:02:24;;;;;;;35.37;16.67;;;;;;;;;;5076863;28;20969;-64
2021/12/14 06:04:53;;;;;;;36.27;17.30;;;;;;;;;;5077106;28;20448;-63
2021/12/14 06:07:21;;;;;;;35.83;16.87;;;;;;;;;;5077012;28;20467;-64
2021/12/14 06:09:51;;;;;;;36.87;17.23;;;;;;;;;;5077125;28;20494;-64
2021/12/14 06:12:21;;;;;;;34.20;17.67;;;;;;;;;;5081772;28;20446;-64
2021/12/14 06:14:55;;;;;;;33.27;16.87;;;;;;;;;;5097429;28;20452;-64
2021/12/14 06:17:26;;;;;;;35.07;16.67;;;;;;;;;;5097404;28;20443;-64
2021/12/14 06:19:55;;;;;;;34.63;17.00;;;;;;;;;;5096828;28;20469;-64
2021/12/14 06:22:24;;;;;;;34.27;17.87;;;;;;;;;;5092091;28;20432;-64
2021/12/14 06:24:54;;;;;;;39.30;18.30;;;;;;;;;;5087906;28;20440;-64
2021/12/14 06:27:25;;;;;;;38.40;19.23;;;;;;;;;;5087168;28;20911;-64
2021/12/14 06:29:54;;;;;;;43.57;19.97;;;;;;;;;;5089270;28;20490;-64
2021/12/14 06:32:23;;;;;;;43.27;18.03;;;;;;;;;;5093501;28;20435;-65
2021/12/14 06:34:52;;;;;;;39.93;18.50;;;;;;;;;;5091333;28;20507;-64
2021/12/14 06:38:05;;;;;;;34.00;16.83;;;;;;;;;;5091064;28;20459;-64
2021/12/14 06:40:35;;;;;;;35.43;17.30;;;;;;;;;;5091243;28;20440;-64
2021/12/14 06:43:05;;;;;;;42.97;19.13;;;;;;;;;;5091642;28;20440;-64
2021/12/14 06:45:34;;;;;;;40.23;18.30;;;;;;;;;;5091668;28;21034;-64
2021/12/14 06:48:04;;;;;;;38.67;17.70;;;;;;;;;;5088546;28;20556;-64
2021/12/14 06:50:36;;;;;;;41.63;18.43;;;;;;;;;;5079844;28;20865;-64
2021/12/14 06:53:07;;;;;;;39.33;18.83;;;;;;;;;;5080221;28;20448;-65
2021/12/14 06:55:37;;;;;;;35.27;17.60;;;;;;;;;;5084920;28;20452;-65
2021/12/14 06:58:06;;;;;;;35.77;16.83;;;;;;;;;;5079757;28;20461;-65
2021/12/14 07:00:35;;;;;;;34.57;17.37;;;;;;;;;;5081219;28;20795;-65
2021/12/14 07:03:03;;;;;;;41.93;18.03;;;;;;;;;;5091754;28;21988;-66
2021/12/14 07:05:32;;;;;;;41.43;18.67;;;;;;;;;;5091160;28;20450;-65
2021/12/14 07:08:00;;;;;;;38.73;17.67;;;;;;;;;;5081828;28;20439;-66
2021/12/14 07:10:34;;;;;;;39.93;18.47;;;;;;;;;;5082694;28;20485;-65
2021/12/14 07:13:09;;;;;;;35.23;17.17;;;;;;;;;;5083451;28;20443;-66
2021/12/14 07:15:37;;;;;;;43.73;18.50;;;;;;;;;;5079342;28;20448;-66
2021/12/14 07:18:07;;;;;;;37.07;19.53;;;;;;;;;;5079488;28;21429;-66
2021/12/14 07:20:38;;;;;;;40.90;18.27;;;;;;;;;;5082772;28;20436;-66
2021/12/14 07:23:16;;;;;;;41.50;19.00;;;;;;;;;;5080489;28;20454;-65
2021/12/14 07:25:47;;;;;;;38.57;18.10;;;;;;;;;;5079349;28;20527;-65
2021/12/14 07:28:17;;;;;;;39.00;18.27;;;;;;;;;;5081447;28;20591;-65
2021/12/14 07:30:46;;;;;;;45.17;20.37;;;;;;;;;;5080631;28;20487;-65
2021/12/14 07:33:15;;;;;;;47.17;19.37;;;;;;;;;;5078918;28;20527;-65
2021/12/14 07:35:50;;;;;;;39.33;18.90;;;;;;;;;;5079043;28;20511;-65
2021/12/14 07:38:21;;;;;;;50.00;20.50;;;;;;;;;;5080385;28;20508;-65
2021/12/14 07:40:50;;;;;;;48.77;19.23;;;;;;;;;;5078106;28;20445;-66
2021/12/14 07:43:21;;;;;;;44.27;19.33;;;;;;;;;;5078269;28;20955;-65
2021/12/14 07:45:50;;;;;;;40.90;19.33;;;;;;;;;;5078820;28;20947;-65
2021/12/14 07:48:19;;;;;;;39.33;18.37;;;;;;;;;;5087080;28;20464;-65
2021/12/14 07:51:06;;;;;;;41.17;19.07;;;;;;;;;;5079216;28;20476;-65
2021/12/14 07:53:37;;;;;;;40.23;17.70;;;;;;;;;;5092461;28;20473;-66
2021/12/14 07:56:06;;;;;;;43.53;19.53;;;;;;;;;;5099509;28;20497;-66
2021/12/14 07:58:37;;;;;;;41.77;17.77;;;;;;;;;;5088215;28;20468;-66
2021/12/14 08:01:06;;;;;;;38.20;17.53;;;;;;;;;;5081546;28;20572;-66
2021/12/14 08:03:34;;;;;;;43.07;18.70;;;;;;;;;;5090073;28;20432;-66
2021/12/14 08:06:04;;;;;;;39.70;18.07;;;;;;;;;;5093131;28;20470;-66
2021/12/14 08:08:41;;;;;;;41.17;18.57;;;;;;;;;;5087636;28;20462;-67
2021/12/14 08:11:29;;;;;;;40.03;18.17;;;;;;;;;;5091309;28;20497;-67
2021/12/14 08:13:59;;;;;;;36.03;17.13;;;;;;;;;;5087741;28;20871;-67
2021/12/14 08:16:38;;;;;;;52.57;19.30;;;;;;;;;;5080009;28;20447;-67
2021/12/14 08:19:06;;;;;;;41.17;18.70;;;;;;;;;;5088907;28;20837;-67
2021/12/14 08:21:34;;;;;;;42.87;19.43;;;;;;;;;;5089072;28;20465;-67
2021/12/14 08:24:04;;;;;;;44.03;18.60;;;;;;;;;;5091841;28;20437;-67
2021/12/14 08:26:35;;;;;;;39.77;17.37;;;;;;;;;;5098509;28;20511;-67
2021/12/14 08:29:09;;;;;;;52.17;20.00;;;;;;;;;;5097783;28;20484;-67
2021/12/14 08:31:38;;;;;;;41.23;18.77;;;;;;;;;;5077691;28;20484;-67
2021/12/14 08:34:07;;;;;;;44.80;19.20;;;;;;;;;;5080505;28;20444;-68
2021/12/14 08:36:38;;;;;;;46.77;18.63;;;;;;;;;;5077874;28;20444;-67
2021/12/14 08:39:08;;;;;;;47.00;19.60;;;;;;;;;;5084765;28;20527;-67
2021/12/14 08:41:42;;;;;;;43.27;17.77;;;;;;;;;;5080152;28;20920;-68
2021/12/14 08:44:12;;;;;;;58.10;20.60;;;;;;;;;;5087324;28;20819;-68
2021/12/14 08:46:40;;;;;;;46.13;17.97;;;;;;;;;;5077594;28;20440;-69
2021/12/14 08:49:09;;;;;;;46.03;19.47;;;;;;;;;;5081724;28;20512;-66
2021/12/14 08:51:40;;;;;;;44.63;16.13;;;;;;;;;;5077556;28;20484;-66
2021/12/14 08:54:09;;;;;;;39.20;16.23;;;;;;;;;;5082736;28;20441;-65
2021/12/14 08:56:40;;;;;;;46.77;17.27;;;;;;;;;;5088612;28;20476;-65
2021/12/14 08:59:08;;;;;;;42.50;17.07;;;;;;;;;;5090795;28;21004;-65
2021/12/14 09:01:40;;;;;;;50.50;17.27;;;;;;;;;;5091143;28;20942;-65
2021/12/14 09:04:10;;;;;;;41.50;15.83;;;;;;;;;;5088372;28;20443;-66
2021/12/14 09:06:40;;;;;;;38.03;16.07;;;;;;;;;;5091516;28;20822;-66
2021/12/14 09:09:10;;;;;;;49.40;21.13;;;;;;;;;;5097521;28;20468;-66
2021/12/14 09:11:39;;;;;;;41.57;18.27;;;;;;;;;;5097515;28;20486;-65
2021/12/14 09:14:13;;;;;;;49.53;19.30;;;;;;;;;;5092222;28;20506;-65
2021/12/14 09:16:43;;;;;;;46.97;17.77;;;;;;;;;;5097190;28;20818;-65
2021/12/14 09:19:14;;;;;;;46.73;19.37;;;;;;;;;;5096943;28;20487;-66
2021/12/14 09:21:45;;;;;;;49.57;20.73;;;;;;;;;;5097825;28;20446;-66
2021/12/14 09:24:15;;;;;;;41.77;16.87;;;;;;;;;;5097667;28;20439;-65
2021/12/14 09:26:46;;;;;;;46.30;19.23;;;;;;;;;;5096941;28;20450;-65
2021/12/14 09:29:16;;;;;;;37.97;17.27;;;;;;;;;;5090357;28;20456;-65
2021/12/14 09:31:48;;;;;;;48.17;17.67;;;;;;;;;;5093730;28;20471;-65
2021/12/14 09:34:17;;;;;;;46.93;20.03;;;;;;;;;;5097182;28;20442;-64
2021/12/14 09:36:46;;;;;;;46.53;15.80;;;;;;;;;;5096975;28;20478;-65
2021/12/14 09:39:15;;;;;;;46.10;17.23;;;;;;;;;;5095185;28;20542;-65
2021/12/14 09:41:44;;;;;;;39.93;15.00;;;;;;;;;;5077063;28;20812;-65
2021/12/14 09:44:13;;;;;;;44.27;17.10;;;;;;;;;;5076687;28;20876;-65
2021/12/14 09:46:41;;;;;;;34.40;14.87;;;;;;;;;;5085141;28;20436;-64
2021/12/14 09:49:12;;;;;;;40.47;16.37;;;;;;;;;;5089736;28;20473;-65
2021/12/14 09:51:42;;;;;;;31.70;14.63;;;;;;;;;;5093629;28;20485;-64
2021/12/14 09:54:11;;;;;;;38.20;14.83;;;;;;;;;;5097241;28;20523;-65
2021/12/14 09:56:43;;;;;;;40.00;14.63;;;;;;;;;;5096851;28;20451;-65
2021/12/14 09:59:11;;;;;;;36.47;14.93;;;;;;;;;;5081351;28;20551;-64
2021/12/14 10:01:42;;;;;;;39.67;16.47;;;;;;;;;;5076999;28;20447;-64
2021/12/14 10:04:14;;;;;;;42.77;16.10;;;;;;;;;;5077638;28;20465;-65
2021/12/14 10:06:42;;;;;;;42.60;17.97;;;;;;;;;;5080976;28;20476;-65
2021/12/14 10:09:14;;;;;;;36.90;16.17;;;;;;;;;;5080633;28;20460;-65
2021/12/14 10:11:49;;;;;;;35.30;16.40;;;;;;;;;;5080419;28;20918;-64
2021/12/14 10:14:19;;;;;;;36.77;14.97;;;;;;;;;;5080572;28;20471;-66
2021/12/14 10:16:47;;;;;;;38.53;14.80;;;;;;;;;;5080967;28;20456;-65
2021/12/14 10:19:18;;;;;;;30.10;14.90;;;;;;;;;;5080275;28;21037;-65
2021/12/14 10:21:50;;;;;;;40.63;16.07;;;;;;;;;;5080441;28;20446;-65
2021/12/14 10:24:18;;;;;;;33.77;12.77;;;;;;;;;;5080697;28;20476;-65
2021/12/14 10:26:54;;;;;;;40.63;15.70;;;;;;;;;;5080359;28;20440;-65
2021/12/14 10:29:23;;;;;;;34.87;15.17;;;;;;;;;;5089816;28;20502;-65
2021/12/14 10:31:53;;;;;;;32.33;15.90;;;;;;;;;;5081433;28;20480;-65
2021/12/14 10:34:25;;;;;;;32.53;13.53;;;;;;;;;;5080531;28;20497;-65
2021/12/14 10:37:01;;;;;;;33.47;13.77;;;;;;;;;;5080436;28;20444;-65
2021/12/14 10:39:40;;;;;;;32.73;13.37;;;;;;;;;;5091218;28;20462;-65
2021/12/14 10:45:00;;;;;;;31.60;13.00;;;;;;;;;;5077517;28;20522;-65
2021/12/14 10:47:29;;;;;;;29.97;13.03;;;;;;;;;;5100478;28;20447;-65
2021/12/14 10:49:59;;;;;;;26.80;12.13;;;;;;;;;;5080399;28;20829;-65
2021/12/14 10:52:29;;;;;;;30.03;13.63;;;;;;;;;;5080283;28;20490;-65
2021/12/14 10:54:59;;;;;;;32.87;13.80;;;;;;;;;;5079889;28;20444;-65
2021/12/14 10:57:29;;;;;;;26.87;11.60;;;;;;;;;;5079350;28;20445;-65
2021/12/14 11:00:05;;;;;;;32.27;13.53;;;;;;;;;;5082344;28;20474;-65
2021/12/14 11:02:39;;;;;;;27.70;12.10;;;;;;;;;;5082671;28;20445;-65
2021/12/14 11:05:16;;;;;;;31.20;12.73;;;;;;;;;;5080144;28;20531;-64
2021/12/14 11:07:46;;;;;;;32.23;14.17;;;;;;;;;;5079940;28;20444;-64
2021/12/14 11:10:16;;;;;;;26.77;12.13;;;;;;;;;;5079963;28;20446;-65
2021/12/14 11:12:45;;;;;;;29.77;13.90;;;;;;;;;;5087916;28;20476;-65
2021/12/14 11:15:15;;;;;;;34.07;13.07;;;;;;;;;;5099986;28;20530;-65
2021/12/14 11:20:32;;;;;;;25.83;12.27;;;;;;;;;;5099837;28;20438;-65
2021/12/14 11:23:03;;;;;;;25.93;12.53;;;;;;;;;;5099760;28;20452;-65
2021/12/14 11:25:38;;;;;;;24.30;11.50;;;;;;;;;;5099885;28;20927;-65
2021/12/14 11:28:09;;;;;;;29.70;13.23;;;;;;;;;;5098640;28;20909;-65
2021/12/14 11:30:39;;;;;;;26.33;11.30;;;;;;;;;;5079397;28;20478;-65
2021/12/14 11:33:09;;;;;;;25.77;12.57;;;;;;;;;;5079635;28;20480;-65
2021/12/14 11:35:41;;;;;;;33.13;13.13;;;;;;;;;;5079749;28;20455;-65
2021/12/14 11:38:23;;;;;;;28.00;12.97;;;;;;;;;;5080034;28;20476;-65
2021/12/14 11:40:51;;;;;;;24.87;11.67;;;;;;;;;;5087093;28;20444;-65
2021/12/14 11:43:22;;;;;;;27.20;12.03;;;;;;;;;;5079112;28;20520;-65
2021/12/14 11:45:54;;;;;;;28.40;12.80;;;;;;;;;;5079210;28;20444;-65
2021/12/14 11:48:31;;;;;;;30.40;13.40;;;;;;;;;;5080336;28;20917;-65
2021/12/14 11:51:01;;;;;;;27.10;12.70;;;;;;;;;;5079338;28;20509;-65
2021/12/14 11:53:29;;;;;;;30.73;13.67;;;;;;;;;;5079127;28;20481;-65
2021/12/14 11:55:59;;;;;;;28.13;12.53;;;;;;;;;;5079064;28;20940;-64
2021/12/14 11:58:30;;;;;;;28.60;13.23;;;;;;;;;;5078427;28;20840;-65
2021/12/14 12:01:01;;;;;;;32.63;12.97;;;;;;;;;;5079045;28;20441;-65
2021/12/14 12:03:33;;;;;;;31.93;12.70;;;;;;;;;;5079130;28;20441;-65
2021/12/14 12:06:08;;;;;;;31.10;14.00;;;;;;;;;;5078813;28;20940;-65
2021/12/14 12:11:25;;;;;;;27.53;13.50;;;;;;;;;;5078649;28;20446;-65
2021/12/14 12:13:53;;;;;;;37.43;14.50;;;;;;;;;;5096274;28;20829;-65
2021/12/14 12:16:26;;;;;;;31.03;13.83;;;;;;;;;;5098766;28;20995;-65
2021/12/14 12:19:07;;;;;;;36.77;14.47;;;;;;;;;;5098604;28;20460;-65
2021/12/14 12:21:37;;;;;;;33.70;14.27;;;;;;;;;;5098767;28;20482;-65
2021/12/14 12:24:06;;;;;;;34.77;15.20;;;;;;;;;;5098849;28;20873;-65
2021/12/14 12:26:34;;;;;;;25.47;12.77;;;;;;;;;;5098340;28;20516;-64
2021/12/14 12:29:06;;;;;;;31.80;14.73;;;;;;;;;;5089494;28;20552;-65
2021/12/14 12:31:38;;;;;;;30.03;13.30;;;;;;;;;;5078324;28;20447;-65
2021/12/14 12:34:10;;;;;;;28.97;14.40;;;;;;;;;;5078273;28;20877;-65
2021/12/14 12:36:41;;;;;;;34.33;14.50;;;;;;;;;;5078128;28;20941;-65
2021/12/14 12:39:10;;;;;;;29.17;13.37;;;;;;;;;;5087120;28;20486;-65
2021/12/14 12:41:44;;;;;;;33.97;14.50;;;;;;;;;;5079266;28;20782;-65
2021/12/14 12:44:18;;;;;;;29.87;14.03;;;;;;;;;;5077471;28;20566;-65
2021/12/14 12:46:48;;;;;;;26.37;12.47;;;;;;;;;;5077831;28;20806;-65
2021/12/14 12:49:18;;;;;;;32.37;13.70;;;;;;;;;;5079689;28;20530;-65
2021/12/14 12:52:06;;;;;;;34.33;13.27;;;;;;;;;;5078088;28;20433;-65
2021/12/14 12:54:56;;;;;;;35.93;14.73;;;;;;;;;;5081335;28;20511;-65
2021/12/14 12:57:31;;;;;;;31.37;13.97;;;;;;;;;;5087088;28;20952;-65
2021/12/14 13:00:07;;;;;;;28.43;14.03;;;;;;;;;;5086595;28;20460;-65
2021/12/14 13:02:38;;;;;;;31.10;15.03;;;;;;;;;;5086471;28;20503;-65
2021/12/14 13:05:09;;;;;;;31.20;14.87;;;;;;;;;;5085773;28;20975;-65
2021/12/14 13:07:40;;;;;;;27.93;13.53;;;;;;;;;;5086566;28;20472;-65
2021/12/14 13:10:11;;;;;;;30.80;14.47;;;;;;;;;;5086681;28;20958;-65
2021/12/14 13:12:40;;;;;;;32.77;14.57;;;;;;;;;;5085456;28;20502;-65
2021/12/14 13:15:23;;;;;;;32.77;14.73;;;;;;;;;;5088155;28;20444;-65
2021/12/14 13:17:51;;;;;;;32.47;13.70;;;;;;;;;;5087063;28;20438;-65
2021/12/14 13:20:29;;;;;;;34.20;14.67;;;;;;;;;;5088457;28;20800;-65
2021/12/14 13:22:59;;;;;;;31.93;13.10;;;;;;;;;;5085700;28;20519;-65
2021/12/14 13:25:33;;;;;;;33.37;14.77;;;;;;;;;;5089105;28;20441;-65
2021/12/14 13:28:01;;;;;;;31.40;15.10;;;;;;;;;;5094399;28;20465;-65
2021/12/14 13:30:30;;;;;;;37.47;15.03;;;;;;;;;;5076466;28;20462;-65
2021/12/14 13:32:58;;;;;;;33.07;14.57;;;;;;;;;;5076509;28;21035;-65
2021/12/14 13:35:28;;;;;;;38.03;15.57;;;;;;;;;;5075706;28;20440;-65
2021/12/14 13:37:58;;;;;;;35.40;15.03;;;;;;;;;;5091036;28;20468;-65
2021/12/14 13:40:29;;;;;;;33.07;16.43;;;;;;;;;;5091181;28;20523;-65
2021/12/14 13:43:00;;;;;;;34.07;15.07;;;;;;;;;;5080361;28;20448;-65
2021/12/14 13:45:29;;;;;;;40.17;15.90;;;;;;;;;;5081258;28;20440;-65
2021/12/14 13:47:58;;;;;;;34.27;14.83;;;;;;;;;;5082281;28;20841;-65
2021/12/14 13:50:32;;;;;;;34.47;15.33;;;;;;;;;;5081394;28;20955;-65
2021/12/14 13:53:01;;;;;;;40.10;14.90;;;;;;;;;;5081385;28;20480;-65
2021/12/14 13:55:35;;;;;;;34.87;14.80;;;;;;;;;;5081664;28;20473;-64
2021/12/14 13:58:06;;;;;;;36.87;16.43;;;;;;;;;;5081034;28;20471;-65
2021/12/14 14:00:36;;;;;;;29.23;14.80;;;;;;;;;;5081176;28;20443;-65
2021/12/14 14:03:04;;;;;;;37.03;16.47;;;;;;;;;;5081152;28;20440;-65
2021/12/14 14:05:33;;;;;;;43.07;17.60;;;;;;;;;;5080891;28;20962;-65
2021/12/14 14:08:04;;;;;;;42.47;17.13;;;;;;;;;;5081143;28;20480;-65
2021/12/14 14:10:33;;;;;;;41.37;16.87;;;;;;;;;;5081057;28;20516;-65
2021/12/14 14:13:05;;;;;;;41.57;15.87;;;;;;;;;;5091188;28;21016;-65
2021/12/14 14:15:34;;;;;;;46.33;17.33;;;;;;;;;;5101421;28;20439;-65
2021/12/14 14:18:04;;;;;;;38.30;16.33;;;;;;;;;;5101168;28;20467;-65
2021/12/14 14:20:35;;;;;;;43.00;16.83;;;;;;;;;;5100973;28;20453;-64
2021/12/14 14:23:08;;;;;;;42.17;17.97;;;;;;;;;;5101336;28;20445;-65
2021/12/14 14:25:42;;;;;;;39.33;15.67;;;;;;;;;;5101002;28;20526;-65
2021/12/14 14:28:23;;;;;;;46.50;17.13;;;;;;;;;;5098395;28;20459;-65
2021/12/14 14:30:53;;;;;;;42.37;16.93;;;;;;;;;;5080936;28;20444;-65
2021/12/14 14:33:26;;;;;;;37.47;17.47;;;;;;;;;;5080889;28;20484;-64
2021/12/14 14:35:55;;;;;;;39.60;15.10;;;;;;;;;;5080762;28;20440;-65
2021/12/14 14:38:34;;;;;;;40.40;17.03;;;;;;;;;;5083081;28;20475;-65
2021/12/14 14:41:24;;;;;;;35.97;14.27;;;;;;;;;;5086286;28;20440;-65
2021/12/14 14:43:56;;;;;;;41.90;15.97;;;;;;;;;;5080924;28;20847;-66
2021/12/14 14:46:43;;;;;;;32.73;14.90;;;;;;;;;;5086864;28;20866;-65
2021/12/14 14:49:13;;;;;;;34.50;13.77;;;;;;;;;;5093251;28;20621;-65
2021/12/14 14:51:45;;;;;;;35.30;14.53;;;;;;;;;;5088820;28;20920;-65
2021/12/14 14:54:31;;;;;;;36.70;15.00;;;;;;;;;;5092358;28;20479;-65
2021/12/14 14:57:20;;;;;;;35.07;14.50;;;;;;;;;;5078622;28;20449;-65
2021/12/14 15:00:06;;;;;;;34.50;14.10;;;;;;;;;;5091154;28;20452;-66
2021/12/14 15:02:48;;;;;;;32.93;14.37;;;;;;;;;;5093335;28;20438;-66
2021/12/14 15:05:18;;;;;;;33.20;13.27;;;;;;;;;;5091313;28;20421;-66